Time;durP1;ratioP1;P1;durP2;ratioP2;P2;SDS_P1;SDS_P2;PMS_P1;PMS_P2;Temp;Humidity;BMP_temperature;BMP_pressure;BME280_temperature;BME280_humidity;BME280_pressure;Samples;Min_cycle;Max_cycle;Signal;HPM_P1;HPM_P2
2021/04/19 00:02:41;;;;;;;5.22;2.78;;;;;;;10.57;39.38;101547.38;8021690;28;20195;-65
2021/04/19 00:06:32;;;;;;;3.83;2.47;;;;;;;10.59;39.85;101549.94;8016251;28;20045;-64
2021/04/19 00:10:24;;;;;;;6.25;2.47;;;;;;;10.54;39.53;101544.94;8017512;28;20041;-64
2021/04/19 00:14:14;;;;;;;8.15;2.85;;;;;;;10.53;39.61;101537.16;8021857;28;20035;-64
2021/04/19 00:18:05;;;;;;;4.45;2.00;;;;;;;10.52;39.43;101541.56;8022825;28;20456;-65
2021/04/19 00:21:56;;;;;;;4.00;2.45;;;;;;;10.51;39.38;101546.88;8021463;28;20083;-66
2021/04/19 00:25:46;;;;;;;3.95;2.58;;;;;;;10.51;39.46;101544.25;8022435;28;20032;-65
2021/04/19 00:29:37;;;;;;;4.82;2.75;;;;;;;10.48;39.76;101542.63;8022816;28;20039;-64
2021/04/19 00:33:27;;;;;;;3.60;2.40;;;;;;;10.46;39.54;101543.63;8021117;28;20037;-65
2021/04/19 00:37:18;;;;;;;3.95;2.38;;;;;;;10.45;39.50;101541.91;8019305;28;20031;-65
2021/04/19 00:41:11;;;;;;;4.28;2.28;;;;;;;10.43;39.54;101538.53;8021234;28;20061;-65
2021/04/19 00:45:06;;;;;;;2.78;2.30;;;;;;;10.39;39.58;101534.41;8028153;28;20440;-64
2021/04/19 00:48:57;;;;;;;6.55;2.20;;;;;;;10.38;39.51;101536.16;8027646;28;21335;-65
2021/04/19 00:52:48;;;;;;;3.55;2.80;;;;;;;10.35;39.72;101540.75;8028637;28;20120;-65
2021/04/19 00:56:39;;;;;;;3.25;2.35;;;;;;;10.35;39.55;101532.88;8027639;28;20560;-65
2021/04/19 01:00:34;;;;;;;6.72;2.22;;;;;;;10.30;39.74;101527.88;8025551;28;20047;-64
2021/04/19 01:04:25;;;;;;;4.25;2.70;;;;;;;10.28;39.46;101536.78;8026389;28;20035;-65
2021/04/19 01:08:17;;;;;;;6.20;2.50;;;;;;;10.23;39.75;101531.75;8031764;28;20682;-62
2021/04/19 01:12:08;;;;;;;3.55;2.17;;;;;;;10.22;39.68;101530.06;8026479;28;20106;-65
2021/04/19 01:16:00;;;;;;;3.95;2.42;;;;;;;10.17;39.77;101532.94;8025834;28;20033;-64
2021/04/19 01:19:51;;;;;;;3.05;2.28;;;;;;;10.16;39.72;101536.47;8026453;28;20891;-65
2021/04/19 01:23:41;;;;;;;4.55;2.42;;;;;;;10.13;39.75;101533.16;8026578;28;20036;-65
2021/04/19 01:27:34;;;;;;;4.70;2.40;;;;;;;10.10;39.78;101525.47;8026792;28;20032;-64
2021/04/19 01:31:24;;;;;;;4.35;2.10;;;;;;;10.07;39.57;101529.09;8025590;28;20102;-65
2021/04/19 01:35:19;;;;;;;12.90;3.25;;;;;;;10.04;40.16;101526.63;8029186;28;20059;-65
2021/04/19 01:39:16;;;;;;;4.68;2.10;;;;;;;10.02;39.80;101527.66;8026026;28;20135;-63
2021/04/19 01:43:07;;;;;;;4.93;2.75;;;;;;;9.97;39.98;101522.66;8024628;28;20815;-65
2021/04/19 01:47:10;;;;;;;6.07;2.35;;;;;;;9.97;39.75;101527.91;8024484;28;20041;-64
2021/04/19 01:51:03;;;;;;;6.25;2.38;;;;;;;9.93;39.61;101518.50;8024116;28;20036;-65
2021/04/19 01:54:58;;;;;;;3.50;1.95;;;;;;;9.88;39.79;101515.25;8024093;28;20540;-63
2021/04/19 01:58:50;;;;;;;5.47;2.05;;;;;;;9.82;39.94;101520.84;8024224;28;20040;-65
2021/04/19 02:02:52;;;;;;;5.25;2.35;;;;;;;9.82;39.89;101522.63;8023401;28;20086;-63
2021/04/19 02:07:01;;;;;;;5.38;2.47;;;;;;;9.80;39.85;101517.44;8017880;28;20127;-65
2021/04/19 02:11:27;;;;;;;3.47;2.15;;;;;;;9.73;39.89;101516.06;8024274;28;20086;-65
2021/04/19 02:15:21;;;;;;;2.35;2.00;;;;;;;9.72;40.13;101520.47;8009281;28;20489;-65
2021/04/19 02:19:40;;;;;;;4.13;2.45;;;;;;;9.71;39.59;101515.28;8025751;28;20049;-65
2021/04/19 02:23:41;;;;;;;4.05;1.98;;;;;;;9.70;39.93;101511.81;8019549;28;20087;-64
2021/04/19 02:27:43;;;;;;;4.32;2.58;;;;;;;9.69;39.82;101514.53;8011654;28;20029;-63
2021/04/19 02:31:39;;;;;;;6.05;2.33;;;;;;;9.67;39.83;101508.50;7999157;28;20040;-64
2021/04/19 02:35:34;;;;;;;5.90;2.63;;;;;;;9.66;39.87;101512.91;8015199;28;20045;-64
2021/04/19 02:39:35;;;;;;;5.55;2.60;;;;;;;9.61;39.89;101506.22;8030993;28;20137;-63
2021/04/19 02:43:26;;;;;;;4.47;2.50;;;;;;;9.62;40.04;101498.25;8025437;28;20036;-64
2021/04/19 02:47:21;;;;;;;7.15;2.40;;;;;;;9.62;40.21;101500.88;8024243;28;20045;-64
2021/04/19 02:51:31;;;;;;;5.97;2.22;;;;;;;9.61;40.34;101503.59;8022877;28;20748;-64
2021/04/19 02:55:24;;;;;;;6.75;3.10;;;;;;;9.58;40.63;101499.34;8023252;28;20752;-65
2021/04/19 02:59:17;;;;;;;4.95;2.65;;;;;;;9.61;40.64;101514.09;8014102;28;20384;-65
2021/04/19 03:03:12;;;;;;;4.53;2.53;;;;;;;9.59;40.85;101515.94;8019118;28;20556;-64
2021/04/19 03:07:09;;;;;;;5.93;2.58;;;;;;;9.57;40.81;101520.44;8020748;28;20046;-65
2021/04/19 03:11:16;;;;;;;5.85;2.65;;;;;;;9.55;40.87;101522.25;8021855;28;20039;-65
2021/04/19 03:15:12;;;;;;;3.25;2.50;;;;;;;9.53;40.78;101521.50;8022529;28;20035;-65
2021/04/19 03:19:11;;;;;;;4.72;2.67;;;;;;;9.50;40.84;101522.50;8021910;28;20032;-65
2021/04/19 03:23:05;;;;;;;3.72;2.55;;;;;;;9.47;41.11;101525.28;8021518;28;20493;-65
2021/04/19 03:27:10;;;;;;;8.55;2.63;;;;;;;9.45;40.98;101528.94;8020929;28;20039;-64
2021/04/19 03:31:10;;;;;;;4.22;2.40;;;;;;;9.42;41.32;101523.81;8022181;28;20039;-65
2021/04/19 03:35:10;;;;;;;8.45;2.85;;;;;;;9.37;41.18;101523.22;8026056;28;20029;-65
2021/04/19 03:39:05;;;;;;;6.22;3.05;;;;;;;9.34;41.14;101530.28;8023223;28;20208;-65
2021/04/19 03:43:02;;;;;;;4.18;2.50;;;;;;;9.32;41.37;101526.91;8023624;28;20040;-65
2021/04/19 03:46:59;;;;;;;7.07;3.05;;;;;;;9.29;41.38;101528.78;8021601;28;20056;-64
2021/04/19 03:51:11;;;;;;;6.10;3.17;;;;;;;9.27;41.40;101528.03;8019311;28;20118;-63
2021/04/19 03:55:13;;;;;;;5.25;2.80;;;;;;;9.26;41.55;101526.34;8023457;28;20060;-65
2021/04/19 03:59:09;;;;;;;4.75;2.67;;;;;;;9.23;41.61;101532.59;8002162;28;20485;-64
2021/04/19 04:03:05;;;;;;;3.08;2.15;;;;;;;9.22;41.38;101528.25;8024932;28;20036;-63
2021/04/19 04:07:15;;;;;;;7.38;2.75;;;;;;;9.18;41.53;101524.09;8027362;28;20058;-64
2021/04/19 04:11:14;;;;;;;5.07;2.83;;;;;;;9.17;41.53;101526.78;8001536;28;20032;-65
2021/04/19 04:15:07;;;;;;;8.23;3.33;;;;;;;9.16;41.70;101528.56;8024271;28;20052;-64
2021/04/19 04:19:03;;;;;;;5.20;2.70;;;;;;;9.14;41.84;101522.56;8016896;28;20396;-64
2021/04/19 04:23:00;;;;;;;9.35;3.00;;;;;;;9.14;41.78;101525.19;8020930;28;20029;-64
2021/04/19 04:26:57;;;;;;;3.47;2.42;;;;;;;9.12;41.96;101521.78;8008191;28;20040;-65
2021/04/19 04:30:48;;;;;;;5.85;2.65;;;;;;;9.12;41.92;101528.81;8019744;28;20126;-64
2021/04/19 04:34:46;;;;;;;5.63;2.95;;;;;;;9.10;42.14;101515.78;8023502;28;20029;-65
2021/04/19 04:38:37;;;;;;;6.88;2.80;;;;;;;9.09;42.22;101521.94;8022168;28;20041;-65
2021/04/19 04:42:34;;;;;;;5.43;2.83;;;;;;;9.07;42.03;101526.41;8023110;28;20519;-66
2021/04/19 04:46:41;;;;;;;9.77;3.75;;;;;;;9.02;42.26;101511.84;8022258;28;20094;-64
2021/04/19 04:50:41;;;;;;;6.75;3.03;;;;;;;9.06;42.01;101523.84;8022548;28;20068;-65
2021/04/19 04:54:34;;;;;;;6.07;3.10;;;;;;;9.04;42.24;101521.31;8022812;28;20025;-65
2021/04/19 04:58:24;;;;;;;4.78;2.85;;;;;;;9.06;42.27;101527.34;8022112;28;20037;-64
2021/04/19 05:02:19;;;;;;;3.92;2.67;;;;;;;9.04;42.34;101528.34;8017338;28;20041;-64
2021/04/19 05:06:10;;;;;;;4.85;2.70;;;;;;;9.03;42.30;101524.03;8020437;28;20484;-65
2021/04/19 05:10:03;;;;;;;4.72;2.67;;;;;;;9.04;42.31;101525.72;8021243;28;20065;-64
2021/04/19 05:14:04;;;;;;;9.77;3.15;;;;;;;9.02;42.41;101535.41;8020531;28;20033;-65
2021/04/19 05:17:54;;;;;;;5.22;3.05;;;;;;;9.00;42.13;101538.09;8018585;28;20144;-65
2021/04/19 05:21:45;;;;;;;5.97;3.25;;;;;;;9.01;42.50;101541.56;8019968;28;20111;-63
2021/04/19 05:25:36;;;;;;;7.18;3.10;;;;;;;9.00;42.34;101538.09;8026879;28;20028;-64
2021/04/19 05:29:27;;;;;;;5.63;3.25;;;;;;;8.99;42.31;101543.44;8027789;28;20037;-63
2021/04/19 05:33:18;;;;;;;5.18;3.20;;;;;;;8.97;42.38;101540.88;8023713;28;20045;-63
2021/04/19 05:37:10;;;;;;;5.15;2.83;;;;;;;8.96;42.91;101536.56;8029409;28;20101;-64
2021/04/19 05:41:01;;;;;;;4.85;3.20;;;;;;;8.96;42.64;101551.44;8030148;28;20062;-64
2021/04/19 05:44:52;;;;;;;5.60;3.03;;;;;;;8.94;42.79;101546.28;8017940;28;20032;-64
2021/04/19 05:48:44;;;;;;;7.38;3.30;;;;;;;8.91;42.78;101551.69;8025450;28;20037;-65
2021/04/19 05:52:35;;;;;;;7.10;3.83;;;;;;;8.89;43.10;101561.38;8012606;28;20082;-64
2021/04/19 05:56:35;;;;;;;5.22;3.55;;;;;;;8.86;43.08;101562.38;8026838;28;20064;-64
2021/04/19 06:00:44;;;;;;;4.95;3.70;;;;;;;8.81;43.67;101556.50;8026230;28;20140;-64
2021/04/19 06:05:02;;;;;;;7.10;3.28;;;;;;;8.78;43.88;101556.66;8010605;28;20060;-64
2021/04/19 06:09:16;;;;;;;4.95;3.53;;;;;;;8.77;43.64;101559.34;8018778;28;20041;-65
2021/04/19 06:13:36;;;;;;;4.80;3.35;;;;;;;8.74;43.63;101560.34;8018866;28;20103;-64
2021/04/19 06:17:28;;;;;;;7.22;3.72;;;;;;;8.75;43.71;101569.88;8024089;28;20086;-65
2021/04/19 06:21:19;;;;;;;5.22;3.17;;;;;;;8.75;43.61;101579.50;8008518;28;20033;-66
2021/04/19 06:25:15;;;;;;;6.22;3.67;;;;;;;8.73;44.11;101586.59;8017804;28;20043;-65
2021/04/19 06:29:08;;;;;;;4.32;2.90;;;;;;;8.73;43.91;101595.31;8010603;28;20064;-65
2021/04/19 06:33:01;;;;;;;5.15;3.33;;;;;;;8.70;44.04;101589.38;8025012;28;20041;-65
2021/04/19 06:36:53;;;;;;;5.35;3.72;;;;;;;8.68;44.27;101571.09;8026717;28;20029;-65
2021/04/19 06:40:45;;;;;;;8.93;3.50;;;;;;;8.69;44.24;101583.28;8021295;28;20592;-64
2021/04/19 06:44:37;;;;;;;7.45;3.78;;;;;;;8.67;44.46;101577.25;8011885;28;20086;-65
2021/04/19 06:48:27;;;;;;;6.30;3.15;;;;;;;8.64;44.42;101576.53;8009957;28;20044;-64
2021/04/19 06:52:18;;;;;;;6.10;3.05;;;;;;;8.67;44.29;101577.25;8007925;28;20033;-65
2021/04/19 06:56:11;;;;;;;5.82;3.30;;;;;;;8.68;44.63;101576.34;8010520;28;20033;-66
2021/04/19 07:00:04;;;;;;;6.35;3.50;;;;;;;8.68;44.39;101572.88;8008197;28;20651;-65
2021/04/19 07:03:59;;;;;;;8.02;4.53;;;;;;;8.68;44.43;101570.25;8031487;28;20033;-65
2021/04/19 07:07:57;;;;;;;6.97;3.88;;;;;;;8.69;44.86;101566.72;8021044;28;20060;-65
2021/04/19 07:11:52;;;;;;;4.00;2.88;;;;;;;8.70;44.96;101574.50;7997111;28;20673;-66
2021/04/19 07:15:47;;;;;;;8.63;4.22;;;;;;;8.73;44.92;101573.50;8015436;28;20044;-65
2021/04/19 07:19:39;;;;;;;4.05;3.03;;;;;;;8.73;45.15;101574.34;8007178;28;20041;-64
2021/04/19 07:23:29;;;;;;;6.32;3.80;;;;;;;8.73;44.96;101573.50;8024629;28;20568;-65
2021/04/19 07:27:21;;;;;;;5.40;3.83;;;;;;;8.75;44.95;101576.88;8020747;28;20115;-65
2021/04/19 07:31:11;;;;;;;5.43;3.45;;;;;;;8.78;45.21;101571.53;8022522;28;20048;-66
2021/04/19 07:35:05;;;;;;;8.23;4.43;;;;;;;8.79;45.07;101581.06;8028307;28;20082;-65
2021/04/19 07:38:58;;;;;;;5.72;3.80;;;;;;;8.81;45.33;101574.00;8022234;28;20040;-64
2021/04/19 07:43:16;;;;;;;6.88;4.03;;;;;;;8.84;45.48;101571.22;8022067;28;20021;-65
2021/04/19 07:47:19;;;;;;;6.68;4.15;;;;;;;8.91;45.24;101562.16;8000783;28;20640;-65
2021/04/19 07:51:34;;;;;;;6.88;3.45;;;;;;;8.97;45.43;101559.22;8015462;28;20559;-66
2021/04/19 07:55:31;;;;;;;7.88;4.28;;;;;;;9.02;45.50;101564.25;8019105;28;20044;-65
2021/04/19 07:59:21;;;;;;;7.95;4.60;;;;;;;9.05;45.60;101558.84;8023150;28;20051;-65
2021/04/19 08:03:15;;;;;;;8.00;4.80;;;;;;;9.09;45.46;101557.78;8025746;28;20386;-65
2021/04/19 08:07:19;;;;;;;8.15;4.95;;;;;;;9.08;45.61;101553.47;8014061;28;20103;-64
2021/04/19 08:11:15;;;;;;;6.93;4.43;;;;;;;9.07;45.62;101563.13;8018963;28;20028;-66
2021/04/19 08:15:09;;;;;;;12.55;4.57;;;;;;;9.05;45.51;101556.22;8010426;28;20111;-66
2021/04/19 08:19:00;;;;;;;7.45;4.65;;;;;;;9.03;45.54;101558.09;8004693;28;20486;-65
2021/04/19 08:22:51;;;;;;;8.25;4.07;;;;;;;9.00;45.42;101550.34;8009013;28;20490;-66
2021/04/19 08:26:56;;;;;;;8.13;4.68;;;;;;;8.98;45.92;101553.06;7987460;28;20041;-66
2021/04/19 08:30:49;;;;;;;6.28;4.07;;;;;;;8.95;45.82;101558.47;7990959;28;20448;-66
2021/04/19 08:34:41;;;;;;;6.50;4.53;;;;;;;8.92;45.79;101561.22;7992366;28;20048;-66
2021/04/19 08:38:33;;;;;;;10.25;4.90;;;;;;;8.91;45.89;101564.78;7992877;28;20060;-63
2021/04/19 08:42:25;;;;;;;8.25;4.82;;;;;;;8.88;45.66;101562.28;7991890;28;20523;-64
2021/04/19 08:46:17;;;;;;;9.32;5.57;;;;;;;8.86;45.69;101562.38;7991930;28;20036;-65
2021/04/19 08:50:08;;;;;;;9.02;5.63;;;;;;;8.85;46.21;101578.16;7990825;28;20028;-66
2021/04/19 08:53:59;;;;;;;7.18;4.50;;;;;;;8.86;45.76;101578.09;7991623;28;20635;-63
2021/04/19 08:57:50;;;;;;;9.25;5.53;;;;;;;8.87;45.93;101578.94;7996248;28;20683;-65
2021/04/19 09:01:42;;;;;;;15.30;5.35;;;;;;;8.85;46.27;101572.91;7998172;28;20513;-65
2021/04/19 09:05:33;;;;;;;8.52;5.95;;;;;;;8.90;46.04;101586.66;7998380;28;20056;-66
2021/04/19 09:09:41;;;;;;;7.20;5.07;;;;;;;8.93;46.18;101586.50;7998617;28;20036;-64
2021/04/19 09:13:42;;;;;;;9.38;5.90;;;;;;;8.97;46.29;101585.44;7998063;28;20753;-66
2021/04/19 09:17:34;;;;;;;8.45;5.57;;;;;;;9.02;46.26;101590.44;7997852;28;20116;-65
2021/04/19 09:21:32;;;;;;;10.52;5.40;;;;;;;9.06;46.31;101590.22;7996693;28;20738;-64
2021/04/19 09:25:41;;;;;;;10.82;5.95;;;;;;;9.09;46.54;101590.06;7990108;28;20036;-66
2021/04/19 09:29:37;;;;;;;7.97;5.53;;;;;;;9.16;46.43;101595.88;7995725;28;20489;-64
2021/04/19 09:33:28;;;;;;;7.38;5.05;;;;;;;9.21;46.30;101586.84;7997867;28;20045;-65
2021/04/19 09:37:22;;;;;;;7.45;5.28;;;;;;;9.25;46.44;101593.66;7997447;28;20393;-66
2021/04/19 09:41:13;;;;;;;8.82;5.88;;;;;;;9.31;46.77;101603.84;7997841;28;20021;-66
2021/04/19 09:45:04;;;;;;;11.52;5.70;;;;;;;9.34;46.75;101595.81;7996008;28;20032;-64
2021/04/19 09:49:05;;;;;;;11.18;5.53;;;;;;;9.45;46.74;101591.88;7996559;28;20029;-64
2021/04/19 09:52:56;;;;;;;11.32;5.95;;;;;;;9.58;46.91;101592.91;7995150;28;20068;-63
2021/04/19 09:56:49;;;;;;;10.65;6.05;;;;;;;9.74;47.15;101596.50;7995227;28;20056;-65
2021/04/19 10:00:44;;;;;;;9.10;5.28;;;;;;;9.84;46.92;101596.84;7996533;28;20512;-64
2021/04/19 10:04:43;;;;;;;11.85;6.18;;;;;;;9.93;46.81;101599.84;7996034;28;20029;-66
2021/04/19 10:08:40;;;;;;;8.23;5.60;;;;;;;10.05;46.74;101582.63;7996024;28;20035;-65
2021/04/19 10:12:36;;;;;;;8.60;5.60;;;;;;;10.22;46.81;101593.06;7994768;28;20540;-64
2021/04/19 10:16:27;;;;;;;12.35;6.78;;;;;;;10.32;46.85;101581.16;7995659;28;20459;-64
2021/04/19 10:20:22;;;;;;;9.88;6.38;;;;;;;10.47;46.87;101584.72;7996005;28;20043;-67
2021/04/19 10:24:15;;;;;;;11.13;6.47;;;;;;;10.59;46.87;101587.56;7991370;28;20071;-66
2021/04/19 10:28:06;;;;;;;12.52;6.90;;;;;;;10.60;46.79;101581.38;7995873;28;20118;-66
2021/04/19 10:31:59;;;;;;;9.38;6.07;;;;;;;10.64;46.66;101585.53;7994331;28;20041;-65
2021/04/19 10:35:49;;;;;;;9.93;6.43;;;;;;;10.64;46.95;101585.53;7995526;28;20040;-65
2021/04/19 10:39:40;;;;;;;11.05;7.30;;;;;;;10.63;46.45;101596.97;7996114;28;20052;-67
2021/04/19 10:43:31;;;;;;;9.23;5.53;;;;;;;10.61;46.85;101587.50;7995627;28;20021;-65
2021/04/19 10:47:28;;;;;;;8.95;6.15;;;;;;;10.63;46.84;101583.00;7994812;28;20045;-66
2021/04/19 10:51:21;;;;;;;9.88;6.90;;;;;;;10.64;46.82;101585.53;7994440;28;20052;-64
2021/04/19 10:55:12;;;;;;;8.82;6.68;;;;;;;10.65;46.53;101578.50;7991739;28;20758;-65
2021/04/19 10:59:08;;;;;;;9.85;6.40;;;;;;;10.66;46.69;101570.53;7995826;28;20094;-66
2021/04/19 11:02:59;;;;;;;10.23;6.00;;;;;;;10.71;46.72;101572.91;7995363;28;20032;-65
2021/04/19 11:06:49;;;;;;;9.75;6.07;;;;;;;10.78;47.05;101574.25;7996130;28;20080;-66
2021/04/19 11:10:40;;;;;;;11.65;6.28;;;;;;;10.79;46.73;101568.06;7995168;28;20035;-66
2021/04/19 11:14:35;;;;;;;10.20;6.13;;;;;;;10.90;46.88;101570.09;7995818;28;20025;-64
2021/04/19 11:18:28;;;;;;;11.40;6.50;;;;;;;11.01;46.83;101575.59;7994528;28;20032;-65
2021/04/19 11:22:18;;;;;;;9.40;6.00;;;;;;;11.10;46.78;101567.19;7992357;28;20041;-63
2021/04/19 11:26:11;;;;;;;10.57;6.93;;;;;;;11.19;46.92;101565.81;7992724;28;20033;-65
2021/04/19 11:30:15;;;;;;;9.48;5.93;;;;;;;11.33;46.87;101565.84;7994260;28;20123;-63
2021/04/19 11:34:11;;;;;;;11.98;6.57;;;;;;;11.38;46.84;101556.75;7997281;28;20476;-65
2021/04/19 11:38:05;;;;;;;9.68;5.93;;;;;;;11.46;46.75;101558.94;7994043;28;20040;-66
2021/04/19 11:41:55;;;;;;;8.68;5.93;;;;;;;11.42;47.02;101553.00;7992647;28;20033;-66
2021/04/19 11:45:48;;;;;;;8.20;5.40;;;;;;;11.42;47.18;101552.16;7993233;28;20052;-66
2021/04/19 11:49:38;;;;;;;7.70;5.47;;;;;;;11.51;47.16;101551.63;7993376;28;20041;-64
2021/04/19 11:53:32;;;;;;;9.98;6.55;;;;;;;11.68;47.34;101548.88;7989659;28;20102;-65
2021/04/19 11:57:22;;;;;;;10.25;6.60;;;;;;;11.85;47.32;101550.50;7991307;28;20103;-66
2021/04/19 12:01:18;;;;;;;13.80;6.63;;;;;;;11.95;47.15;101552.47;7992955;28;20126;-65
2021/04/19 12:05:09;;;;;;;7.07;5.72;;;;;;;12.02;47.25;101551.13;7992914;28;20032;-66
2021/04/19 12:09:00;;;;;;;7.60;5.05;;;;;;;12.12;46.98;101555.84;7993285;28;20127;-66
2021/04/19 12:12:50;;;;;;;7.30;5.18;;;;;;;12.21;46.78;101542.13;7992773;28;20125;-66
2021/04/19 12:16:41;;;;;;;8.13;5.75;;;;;;;12.38;46.81;101541.91;7992696;28;20534;-65
2021/04/19 12:20:31;;;;;;;7.93;5.88;;;;;;;12.51;46.76;101551.59;7992938;28;20040;-64
2021/04/19 12:24:22;;;;;;;8.18;5.22;;;;;;;12.60;46.74;101547.53;7987080;28;20572;-65
2021/04/19 12:28:13;;;;;;;8.93;6.00;;;;;;;12.69;46.63;101535.53;7993021;28;20035;-66
2021/04/19 12:32:04;;;;;;;7.63;5.63;;;;;;;12.74;46.55;101541.38;7994882;28;20041;-65
2021/04/19 12:35:54;;;;;;;9.45;6.40;;;;;;;12.74;46.51;101536.09;7995741;28;20070;-65
2021/04/19 12:39:45;;;;;;;8.32;6.03;;;;;;;12.74;46.43;101530.81;7995905;28;20072;-65
2021/04/19 12:43:36;;;;;;;9.25;5.93;;;;;;;12.70;46.53;101530.19;7998795;28;20036;-65
2021/04/19 12:47:26;;;;;;;7.82;5.53;;;;;;;12.73;46.45;101519.44;7997409;28;20896;-64
2021/04/19 12:51:17;;;;;;;8.02;4.97;;;;;;;12.69;46.27;101522.34;7998926;28;20044;-65
2021/04/19 12:55:09;;;;;;;7.68;6.05;;;;;;;12.68;46.39;101526.78;7993859;28;20116;-64
2021/04/19 12:58:59;;;;;;;10.88;6.90;;;;;;;12.66;46.28;101519.94;7999393;28;20577;-65
2021/04/19 13:02:50;;;;;;;11.88;5.95;;;;;;;12.64;46.40;101520.03;7997430;28;20109;-64
2021/04/19 13:06:41;;;;;;;11.20;6.00;;;;;;;12.62;46.13;101515.81;7998303;28;20562;-65
2021/04/19 13:10:32;;;;;;;8.15;5.72;;;;;;;12.59;46.33;101516.00;7998189;28;20033;-65
2021/04/19 13:14:24;;;;;;;7.70;5.47;;;;;;;12.61;46.23;101524.66;7998239;28;20048;-65
2021/04/19 13:18:15;;;;;;;7.18;5.25;;;;;;;12.61;45.90;101522.00;7996532;28;20040;-65
2021/04/19 13:22:06;;;;;;;7.18;5.55;;;;;;;12.63;45.99;101522.78;7996771;28;20060;-64
2021/04/19 13:25:56;;;;;;;10.30;5.70;;;;;;;12.66;45.83;101522.56;7994215;28;20444;-65
2021/04/19 13:29:48;;;;;;;8.38;5.30;;;;;;;12.70;45.80;101513.50;7994515;28;20033;-65
2021/04/19 13:33:39;;;;;;;10.13;6.03;;;;;;;12.71;45.95;101505.53;7996361;28;20045;-65
2021/04/19 13:37:29;;;;;;;9.07;5.00;;;;;;;12.69;45.87;101507.41;7996400;28;20059;-66
2021/04/19 13:41:21;;;;;;;8.32;4.75;;;;;;;12.72;45.63;101511.63;7996598;28;20045;-64
2021/04/19 13:45:15;;;;;;;7.85;5.22;;;;;;;12.74;45.39;101505.31;7995816;28;20596;-66
2021/04/19 13:49:05;;;;;;;8.15;5.00;;;;;;;12.77;45.17;101507.75;7996548;28;20090;-66
2021/04/19 13:52:56;;;;;;;5.97;4.97;;;;;;;12.79;45.34;101499.75;7994278;28;20033;-66
2021/04/19 13:56:47;;;;;;;8.55;5.13;;;;;;;12.85;45.26;101500.16;7994927;28;20033;-64
2021/04/19 14:00:38;;;;;;;8.50;5.85;;;;;;;12.92;44.98;101505.91;7996676;28;20041;-65
2021/04/19 14:04:28;;;;;;;6.18;5.25;;;;;;;12.95;44.60;101489.88;7995897;28;20032;-65
2021/04/19 14:08:19;;;;;;;8.27;5.80;;;;;;;13.01;44.83;101497.41;7996168;28;20033;-65
2021/04/19 14:12:10;;;;;;;7.80;5.03;;;;;;;13.08;44.72;101487.28;7995684;28;20053;-66
2021/04/19 14:16:01;;;;;;;8.00;5.97;;;;;;;13.14;44.56;101487.69;7994886;28;20607;-65
2021/04/19 14:19:51;;;;;;;6.82;5.00;;;;;;;13.19;44.74;101484.75;7995791;28;20037;-64
2021/04/19 14:23:42;;;;;;;7.90;5.15;;;;;;;13.19;44.66;101482.09;7989032;28;20040;-65
2021/04/19 14:27:33;;;;;;;6.90;4.90;;;;;;;13.20;44.51;101484.66;7994910;28;20041;-64
2021/04/19 14:31:24;;;;;;;6.97;5.00;;;;;;;13.21;44.42;101477.59;7996209;28;20033;-66
2021/04/19 14:35:15;;;;;;;9.27;5.00;;;;;;;13.18;44.34;101473.34;7995981;28;20171;-64
2021/04/19 14:39:06;;;;;;;8.35;5.03;;;;;;;13.19;44.42;101466.28;7995357;28;20033;-65
2021/04/19 14:42:56;;;;;;;7.72;5.70;;;;;;;13.16;44.28;101472.63;7996061;28;20036;-65
2021/04/19 14:46:48;;;;;;;7.85;4.85;;;;;;;13.15;44.29;101467.44;7992135;28;20040;-64
2021/04/19 14:50:45;;;;;;;6.70;5.18;;;;;;;13.11;44.08;101461.53;7962764;28;20041;-65
2021/04/19 14:54:37;;;;;;;9.00;5.68;;;;;;;13.10;43.99;101465.09;7991455;28;20060;-65
2021/04/19 14:58:28;;;;;;;6.50;4.80;;;;;;;13.10;44.04;101465.09;7995662;28;20032;-65
2021/04/19 15:02:19;;;;;;;7.65;5.15;;;;;;;13.10;44.06;101466.88;7995115;28;20128;-65
2021/04/19 15:06:09;;;;;;;7.38;5.28;;;;;;;13.03;43.88;101455.06;7993368;28;20029;-66
2021/04/19 15:10:00;;;;;;;9.40;5.72;;;;;;;12.99;44.09;101450.00;7993684;28;20036;-64
2021/04/19 15:13:54;;;;;;;7.95;4.90;;;;;;;12.97;44.06;101448.44;7993407;28;20107;-65
2021/04/19 15:17:44;;;;;;;7.13;5.03;;;;;;;12.91;43.82;101451.47;7993348;28;20156;-66
2021/04/19 15:21:36;;;;;;;9.23;5.32;;;;;;;12.90;43.80;101450.63;7994106;28;20036;-66
2021/04/19 15:25:26;;;;;;;6.82;5.45;;;;;;;12.86;43.93;101445.66;7988316;28;20025;-66
2021/04/19 15:29:17;;;;;;;7.43;5.57;;;;;;;12.82;43.84;101449.44;7992656;28;20102;-65
2021/04/19 15:33:08;;;;;;;6.68;5.32;;;;;;;12.74;43.76;101455.22;7988963;28;20044;-66
2021/04/19 15:36:59;;;;;;;7.45;5.68;;;;;;;12.68;43.75;101450.34;7992458;28;20043;-66
2021/04/19 15:40:50;;;;;;;9.25;6.60;;;;;;;12.64;43.89;101454.13;7992028;28;20049;-65
2021/04/19 15:44:41;;;;;;;10.18;5.82;;;;;;;12.61;43.86;101451.69;7992168;28;20051;-65
2021/04/19 15:48:32;;;;;;;9.73;6.10;;;;;;;12.59;43.76;101458.03;7991191;28;20645;-66
2021/04/19 15:52:22;;;;;;;8.45;6.05;;;;;;;12.58;43.93;101458.97;7993030;28;20044;-65
2021/04/19 15:56:13;;;;;;;7.40;5.43;;;;;;;12.57;44.06;101462.50;7991281;28;20123;-66
2021/04/19 16:00:05;;;;;;;7.45;5.60;;;;;;;12.56;43.88;101459.03;7994202;28;20375;-66
2021/04/19 16:03:56;;;;;;;6.13;5.10;;;;;;;12.57;44.02;101454.59;7991389;28;20064;-66
2021/04/19 16:07:46;;;;;;;9.70;6.25;;;;;;;12.57;44.00;101452.81;7992619;28;20153;-65
2021/04/19 16:11:37;;;;;;;7.85;5.65;;;;;;;12.57;44.06;101457.22;7990907;28;20623;-65
2021/04/19 16:15:28;;;;;;;8.73;5.72;;;;;;;12.58;44.08;101456.31;7991883;28;20037;-66
2021/04/19 16:19:19;;;;;;;8.07;6.05;;;;;;;12.61;44.14;101454.34;7975536;28;20037;-65
2021/04/19 16:23:11;;;;;;;9.73;6.47;;;;;;;12.61;44.31;101454.34;7992588;28;20135;-66
2021/04/19 16:27:01;;;;;;;7.28;5.70;;;;;;;12.61;44.11;101459.59;7992674;28;20054;-64
2021/04/19 16:30:52;;;;;;;9.45;6.18;;;;;;;12.64;44.42;101459.41;7990529;28;20033;-65
2021/04/19 16:34:43;;;;;;;8.20;6.40;;;;;;;12.62;44.31;101460.44;7992468;28;20032;-65
2021/04/19 16:38:33;;;;;;;8.30;6.32;;;;;;;12.60;44.39;101449.19;7993122;28;20049;-65
2021/04/19 16:42:25;;;;;;;13.32;6.85;;;;;;;12.58;44.60;101459.81;7992712;28;20052;-66
2021/04/19 16:46:16;;;;;;;8.05;6.40;;;;;;;12.57;44.57;101465.13;7992697;28;20095;-65
2021/04/19 16:50:08;;;;;;;8.10;5.95;;;;;;;12.54;44.59;101459.13;7989277;28;20740;-65
2021/04/19 16:53:58;;;;;;;9.02;6.30;;;;;;;12.52;44.46;101458.38;7988926;28;20821;-67
2021/04/19 16:57:49;;;;;;;7.72;6.45;;;;;;;12.48;44.59;101450.75;7990746;28;20033;-68
2021/04/19 17:01:39;;;;;;;8.00;5.97;;;;;;;12.48;44.72;101448.13;7991272;28;20047;-66
2021/04/19 17:05:30;;;;;;;9.73;6.63;;;;;;;12.44;44.68;101452.75;7991861;28;20082;-70
2021/04/19 17:09:22;;;;;;;10.73;6.63;;;;;;;12.42;44.71;101446.75;7991651;28;20053;-65
2021/04/19 17:13:12;;;;;;;9.32;6.75;;;;;;;12.38;44.86;101442.63;7993295;28;20095;-71
2021/04/19 17:17:14;;;;;;;7.63;6.05;;;;;;;12.35;44.89;101449.91;7992130;28;20043;-73
2021/04/19 17:21:06;;;;;;;10.38;7.07;;;;;;;12.31;45.03;101443.13;7998667;28;20033;-72
2021/04/19 17:24:56;;;;;;;10.38;6.80;;;;;;;12.28;45.21;101443.31;7997352;28;20174;-73
2021/04/19 17:28:47;;;;;;;9.82;7.00;;;;;;;12.14;45.16;101422.28;7997995;28;20144;-73
2021/04/19 17:32:39;;;;;;;9.50;6.82;;;;;;;12.20;45.08;101441.16;8000004;28;20076;-73
2021/04/19 17:36:33;;;;;;;8.02;6.32;;;;;;;12.16;45.19;101434.41;7999149;28;21197;-72
2021/04/19 17:40:24;;;;;;;10.25;7.38;;;;;;;12.15;45.33;101439.75;7981310;28;20654;-71
2021/04/19 17:44:14;;;;;;;7.65;6.28;;;;;;;12.08;45.29;101439.31;7998726;28;20539;-70
2021/04/19 17:48:06;;;;;;;11.77;7.43;;;;;;;12.05;45.25;101443.00;7996539;28;20038;-71
2021/04/19 17:51:57;;;;;;;9.75;7.18;;;;;;;12.00;45.53;101445.06;7996371;28;20036;-71
2021/04/19 17:55:47;;;;;;;9.07;6.80;;;;;;;11.96;45.69;101437.47;7993081;28;20037;-71
2021/04/19 17:59:40;;;;;;;9.50;6.90;;;;;;;11.91;45.71;101439.53;7997401;28;20881;-72
2021/04/19 18:03:39;;;;;;;10.82;7.13;;;;;;;11.86;45.75;101437.19;8008739;28;20121;-71
2021/04/19 18:07:29;;;;;;;9.23;6.72;;;;;;;11.82;45.59;101442.72;7996574;28;20043;-72
2021/04/19 18:11:20;;;;;;;8.73;6.28;;;;;;;11.75;45.73;101439.66;7996959;28;20053;-72